• Join FlightAware (Why Join?)
  • Login
  • US Flag 
06:36PM EDT


 

Airport Tracker/Info


-or-


 

Live Flight TrackerFlight Track Log ✈ EGF4393 ✈ 10-Jun-2013 ✈ KORD - KCWA

Flight Track Log - Related Links

Times and Time Zones

All times are in EDT time to prevent confusion due to time zone crossing. See the EGF4393 flight status page for this flight to view local times or setup timezone preferences in your user account.

Time Position Orientation Groundspeed Altitude Reporting Facility
EDT Latitude Longitude Course Direction KTS MPH feet Rate Location/Type
03:47PM 42.0167 -87.9667 352° North 197 227 2,800  Level Chicago TRACON
03:49PM 42.2250 -87.9854 350° North  Level FlightAware Approximate
03:49PM 42.1250 -88.0036 346° North 252 290 5,000  Level Chicago Center
03:50PM 42.3128 -88.0073 350° North  Level FlightAware Approximate
03:50PM 42.1961 -87.9964 North 258 297 6,800  Level Chicago Center
03:51PM 42.3982 -88.0407 340° North  Level FlightAware Approximate
03:51PM 42.2672 -88.0006 358° North 258 297 9,100  Level Chicago Center
03:52PM 42.4854 -88.0638 352° North  Level FlightAware Approximate
03:52PM 42.3550 -88.0064 357° North 276 318 11,200  Level Chicago Center
03:53PM 42.4406 -88.0089 359° North 303 349 12,800 1,560 Climbing Chicago Center
03:54PM 42.5228 -88.0528 339° North 320 368 14,500 1,740 Climbing Chicago Center
03:55PM 42.6153 -88.1203 332° Northwest 323 372 16,400 1,620 Climbing Chicago Center
03:56PM 42.6956 -88.1742 334° Northwest 322 371 17,900 1,500 Climbing Chicago Center
03:57PM 42.7731 -88.2281 333° Northwest 314 361 19,600 960 Climbing Chicago Center
03:58PM 42.8544 -88.2844 333° Northwest 326 375 20,000 180 Climbing Chicago Center
03:59PM 42.9447 -88.3483 333° Northwest 358 412 20,000  Level Chicago Center
04:00PM 43.0564 -88.4247 333° Northwest 379 436 20,000  Level Chicago Center
04:01PM 43.1519 -88.4917 333° Northwest 382 440 20,000  Level Chicago Center
04:02PM 43.2461 -88.5578 333° Northwest 378 435 20,000  Level Chicago Center
04:03PM 43.3417 -88.6261 333° Northwest 380 437 20,000 -60 Level Chicago Center
04:04PM 43.4389 -88.6950 333° Northwest 385 443 19,900 -540 Descending Chicago Center
04:05PM 43.5339 -88.7622 333° Northwest 378 435 18,900 -1,020 Descending Chicago Center
04:06PM 43.6269 -88.8283 333° Northwest 376 433 17,800 -1,020 Descending Chicago Center
04:07PM 43.7189 -88.8936 333° Northwest 372 428 16,800 -1,080 Descending Chicago Center
04:08PM 43.8244 -88.9697 333° Northwest 367 422 15,600 -1,080 Descending Chicago Center
04:10PM 43.9139 -89.0333 333° Northwest 362 417 14,600 -960 Descending Chicago Center
04:11PM 44.0044 -89.0997 332° Northwest 365 420 13,700 -1,020 Descending Chicago Center
04:11PM 44.0547 -89.1361 333° Northwest 376 433 13,100 -1,080 Descending Minneapolis Center
04:12PM 44.0986 -89.1664 334° Northwest 373 429 12,600 -1,260 Descending Chicago Center
04:12PM 44.1511 -89.2056 332° Northwest 377 434 11,800 -1,320 Descending Minneapolis Center
04:13PM 44.2406 -89.2719 332° Northwest 347 399 10,600 -1,260 Descending Minneapolis Center
04:14PM 44.3106 -89.3239 332° Northwest 299 344 9,300 -1,680 Descending Minneapolis Center
04:15PM 44.3803 -89.3744 333° Northwest 275 316 7,200 -2,280 Descending Minneapolis Center
04:16PM 44.4483 -89.4244 332° Northwest 266 306 4,600 -2,040 Descending Minneapolis Center
04:17PM 44.5144 -89.4742 332° Northwest 260 299 3,000 -780 Descending Minneapolis Center
04:18PM 44.5808 -89.5219 333° Northwest 258 297 3,000  Level Minneapolis Center